Terminal Aerodrome Forecast
Issued by NWS

Home | Current Version | Previous Version | Text Only | Print | Product List | Glossary Off
Versions: 1 2 3 4 5 6 7 8 9 10 11 12 13

000
FTUS42 KMHX 271100 RRA
TAFOAJ
TAF
KOAJ 271142Z 2712/2812 34008G15KT P6SM BKN020 OVC045
     FM271700 34006G15KT P6SM OVC025
     FM271900 34007KT P6SM OVC035
     FM272100 32004KT P6SM SCT040
      AMD LTD TO CLD VIS AND WIND=

USA.gov is the U.S. government's official web portal to all federal, state and local government web resources and services.